Time;durP1;ratioP1;P1;durP2;ratioP2;P2;SDS_P1;SDS_P2;PMS_P1;PMS_P2;Temp;Humidity;BMP_temperature;BMP_pressure;BME280_temperature;BME280_humidity;BME280_pressure;Samples;Min_cycle;Max_cycle;Signal;HPM_P1;HPM_P2
2023/09/17 00:01:36;;;;;;;8.68;4.20;;;;;;;20.70;57.57;99884.66;4473560;31;33955;-69
2023/09/17 00:04:06;;;;;;;6.37;3.62;;;;;;;20.61;57.60;99888.44;4483765;32;34951;-69
2023/09/17 00:06:34;;;;;;;8.20;4.18;;;;;;;20.62;57.39;99888.28;4467834;32;33464;-69
2023/09/17 00:09:03;;;;;;;8.50;4.60;;;;;;;20.63;57.19;99889.94;4476726;31;33741;-70
2023/09/17 00:11:31;;;;;;;7.70;4.62;;;;;;;20.63;57.21;99889.09;4489088;31;34880;-69
2023/09/17 00:13:58;;;;;;;6.90;5.30;;;;;;;20.59;57.28;99885.06;4489991;31;34064;-69
2023/09/17 00:16:31;;;;;;;7.65;3.22;;;;;;;20.59;57.29;99882.34;4494913;31;34022;-69
2023/09/17 00:19:00;;;;;;;4.35;2.80;;;;;;;20.58;57.36;99875.22;4477482;31;33485;-69
2023/09/17 00:21:27;;;;;;;6.62;3.95;;;;;;;20.60;57.13;99870.44;4471860;31;34918;-70
2023/09/17 00:23:55;;;;;;;7.78;4.95;;;;;;;20.55;57.31;99862.81;4485495;31;34699;-69
2023/09/17 00:26:22;;;;;;;8.65;6.10;;;;;;;20.52;57.47;99863.16;4480179;31;34543;-70
2023/09/17 00:28:50;;;;;;;8.25;4.60;;;;;;;20.45;57.68;99871.16;4491199;31;33680;-70
2023/09/17 00:31:18;;;;;;;8.95;6.05;;;;;;;20.43;57.40;99864.19;4485670;31;34735;-70
2023/09/17 00:33:46;;;;;;;8.40;6.28;;;;;;;20.37;57.51;99873.88;4482662;32;34443;-71
2023/09/17 00:36:14;;;;;;;7.82;5.47;;;;;;;20.29;57.74;99870.31;4479003;31;34015;-70
2023/09/17 00:38:41;;;;;;;3.15;2.12;;;;;;;20.20;58.03;99870.38;4477805;31;33688;-70
2023/09/17 00:41:09;;;;;;;7.65;5.53;;;;;;;20.28;57.93;99865.91;4482138;31;33683;-70
2023/09/17 00:43:37;;;;;;;4.47;2.55;;;;;;;20.26;57.60;99860.69;4482252;31;33945;-70
2023/09/17 00:46:05;;;;;;;7.37;2.87;;;;;;;20.31;57.56;99865.56;4482896;31;33144;-70
2023/09/17 00:48:33;;;;;;;5.07;2.90;;;;;;;20.28;57.58;99864.03;4490409;31;34388;-70
2023/09/17 00:51:03;;;;;;;6.28;4.78;;;;;;;20.24;57.68;99860.84;4474779;31;34305;-70
2023/09/17 00:53:31;;;;;;;4.93;2.58;;;;;;;20.20;57.70;99858.66;4467485;32;34003;-70
2023/09/17 00:55:59;;;;;;;5.53;3.10;;;;;;;20.16;57.72;99849.13;4466649;31;33326;-70
2023/09/17 00:58:29;;;;;;;5.30;2.67;;;;;;;20.14;57.75;99864.78;4472959;31;33936;-69
2023/09/17 01:00:58;;;;;;;5.55;3.50;;;;;;;20.18;57.40;99863.41;4477427;31;34123;-71
2023/09/17 01:03:27;;;;;;;5.45;2.30;;;;;;;20.12;57.50;99853.22;4475011;32;33931;-70
2023/09/17 01:05:56;;;;;;;13.15;3.35;;;;;;;20.08;57.65;99860.03;4466861;32;33427;-69
2023/09/17 01:08:25;;;;;;;4.75;2.95;;;;;;;20.10;57.74;99860.72;4462914;32;33502;-70
2023/09/17 01:10:57;;;;;;;4.37;2.50;;;;;;;20.12;57.91;99859.50;4472896;31;34185;-70
2023/09/17 01:13:25;;;;;;;6.82;4.72;;;;;;;20.16;57.98;99862.72;4491739;31;33591;-69
2023/09/17 01:15:53;;;;;;;6.00;4.55;;;;;;;20.10;58.15;99856.13;4469575;32;33396;-70
2023/09/17 01:18:21;;;;;;;5.57;3.22;;;;;;;20.13;58.00;99857.66;4477975;31;33471;-70
2023/09/17 01:20:52;;;;;;;6.95;4.40;;;;;;;20.18;58.05;99857.97;4478863;31;34046;-70
2023/09/17 01:23:36;;;;;;;5.35;2.87;;;;;;;20.19;58.43;99863.25;4471451;31;34729;-69
2023/09/17 01:26:24;;;;;;;5.32;2.60;;;;;;;20.28;58.34;99857.75;4481636;31;34150;-70
2023/09/17 01:28:56;;;;;;;5.93;3.25;;;;;;;20.28;58.47;99860.47;4489681;31;34634;-69
2023/09/17 01:31:24;;;;;;;5.22;2.90;;;;;;;20.30;58.18;99861.16;4479137;31;34065;-70
2023/09/17 01:33:53;;;;;;;3.95;2.78;;;;;;;20.31;57.76;99860.12;4470187;31;35230;-69
2023/09/17 01:36:27;;;;;;;7.18;5.20;;;;;;;20.30;57.46;99861.16;4459194;31;34292;-69
2023/09/17 01:39:00;;;;;;;4.53;2.92;;;;;;;20.21;57.29;99855.75;4465518;32;33821;-69
2023/09/17 01:41:28;;;;;;;5.57;3.12;;;;;;;20.23;57.24;99848.28;4477332;31;34916;-69
2023/09/17 01:43:56;;;;;;;3.45;2.15;;;;;;;20.17;57.16;99850.84;4494106;31;33665;-69
2023/09/17 01:46:25;;;;;;;5.50;3.10;;;;;;;20.09;57.25;99846.25;4462031;31;33211;-69
2023/09/17 01:48:54;;;;;;;8.43;4.62;;;;;;;20.09;57.38;99848.13;4499576;31;33391;-69
2023/09/17 01:51:21;;;;;;;4.95;3.22;;;;;;;20.06;57.57;99848.47;4476127;32;33908;-69
2023/09/17 01:53:49;;;;;;;8.27;3.33;;;;;;;20.00;57.72;99844.59;4473551;32;34692;-69
2023/09/17 01:56:17;;;;;;;5.57;3.20;;;;;;;19.94;57.81;99850.72;4483664;31;33034;-70
2023/09/17 01:58:45;;;;;;;3.95;2.55;;;;;;;20.00;57.44;99855.47;4489393;31;34359;-69
2023/09/17 02:01:13;;;;;;;5.25;2.45;;;;;;;20.01;57.36;99854.44;4493007;31;34050;-69
2023/09/17 02:03:41;;;;;;;4.07;2.72;;;;;;;20.00;57.53;99858.19;4471658;31;33596;-69
2023/09/17 02:06:09;;;;;;;5.15;3.20;;;;;;;20.00;57.58;99855.47;4493295;31;33036;-69
2023/09/17 02:08:37;;;;;;;8.48;3.87;;;;;;;20.02;57.63;99853.41;4479511;31;34736;-69
2023/09/17 02:11:06;;;;;;;7.10;3.75;;;;;;;20.04;57.48;99853.25;4482039;31;33709;-69
2023/09/17 02:13:33;;;;;;;5.62;3.03;;;;;;;20.02;57.63;99846.09;4482799;31;34773;-69
2023/09/17 02:16:01;;;;;;;7.18;5.25;;;;;;;20.04;57.57;99847.81;4484676;31;33176;-70
2023/09/17 02:18:29;;;;;;;6.37;2.22;;;;;;;20.01;57.51;99839.00;4478776;32;34711;-69
2023/09/17 02:20:57;;;;;;;6.07;4.37;;;;;;;20.04;57.19;99839.69;4482950;31;33686;-70
2023/09/17 02:23:25;;;;;;;5.30;3.30;;;;;;;19.95;57.17;99836.13;4473508;31;34237;-71
2023/09/17 02:25:53;;;;;;;3.87;2.92;;;;;;;20.04;56.83;99840.53;4482177;31;33297;-72
2023/09/17 02:28:21;;;;;;;4.70;3.03;;;;;;;20.03;56.79;99841.53;4486447;31;34494;-71
2023/09/17 02:30:48;;;;;;;5.00;3.20;;;;;;;19.94;57.07;99840.72;4463197;32;33706;-72
2023/09/17 02:33:16;;;;;;;8.27;3.58;;;;;;;19.82;57.64;99839.38;4491888;31;34124;-71
2023/09/17 02:35:43;;;;;;;4.45;2.97;;;;;;;19.77;57.67;99837.19;4486181;31;33277;-72
2023/09/17 02:38:11;;;;;;;6.15;3.05;;;;;;;19.72;57.77;99846.84;4478914;31;34661;-72
2023/09/17 02:40:39;;;;;;;5.30;2.35;;;;;;;19.73;57.74;99843.94;4468847;31;33834;-72
2023/09/17 02:43:07;;;;;;;4.85;2.90;;;;;;;19.67;57.92;99838.34;4477648;31;34105;-72
2023/09/17 02:45:35;;;;;;;3.65;2.15;;;;;;;19.43;58.74;99837.34;4477746;31;33012;-72
2023/09/17 02:48:03;;;;;;;3.75;2.65;;;;;;;19.55;58.10;99849.56;4482980;31;32595;-71
2023/09/17 02:50:31;;;;;;;4.45;2.50;;;;;;;19.45;57.99;99839.84;4483362;32;34111;-72
2023/09/17 02:52:58;;;;;;;5.50;2.72;;;;;;;19.51;58.04;99840.03;4482686;32;33899;-71
2023/09/17 02:55:26;;;;;;;6.32;2.78;;;;;;;19.58;57.91;99836.62;4482486;32;34247;-71
2023/09/17 02:57:54;;;;;;;3.47;2.42;;;;;;;19.56;58.12;99839.53;4482015;32;34138;-71
2023/09/17 03:00:22;;;;;;;5.95;3.53;;;;;;;19.62;57.96;99833.41;4484959;31;34203;-71
2023/09/17 03:02:54;;;;;;;5.72;3.17;;;;;;;19.66;58.12;99840.22;4484690;31;33595;-71
2023/09/17 03:05:22;;;;;;;5.55;3.42;;;;;;;19.69;57.97;99839.03;4486127;31;33960;-71
2023/09/17 03:07:50;;;;;;;5.87;3.25;;;;;;;19.69;57.83;99836.34;4490954;31;34626;-69
2023/09/17 03:10:20;;;;;;;4.82;2.62;;;;;;;19.73;57.66;99827.66;4481156;32;33587;-69
2023/09/17 03:12:49;;;;;;;7.68;2.55;;;;;;;19.75;57.35;99820.19;4483029;32;33756;-70
2023/09/17 03:15:17;;;;;;;6.25;3.25;;;;;;;19.77;57.23;99825.44;4473696;32;33389;-69
2023/09/17 03:17:44;;;;;;;4.43;2.85;;;;;;;19.74;57.32;99832.09;4481301;31;33688;-69
2023/09/17 03:20:22;;;;;;;4.07;2.58;;;;;;;19.71;57.34;99826.13;4478803;31;34171;-72
2023/09/17 03:22:50;;;;;;;3.62;2.15;;;;;;;19.69;57.74;99822.75;4486168;31;33816;-71
2023/09/17 03:25:18;;;;;;;6.00;3.22;;;;;;;19.63;58.21;99824.25;4476131;31;34336;-71
2023/09/17 03:27:46;;;;;;;6.70;3.42;;;;;;;19.52;58.69;99824.63;4483710;31;34757;-71
2023/09/17 03:30:13;;;;;;;7.43;4.75;;;;;;;19.56;58.51;99825.97;4481876;32;35100;-71
2023/09/17 03:32:42;;;;;;;5.35;2.90;;;;;;;19.55;58.39;99816.13;4477031;31;34720;-71
2023/09/17 03:35:30;;;;;;;5.40;3.67;;;;;;;19.24;58.92;99814.09;4477718;32;33175;-71
2023/09/17 03:37:58;;;;;;;4.90;3.45;;;;;;;19.40;58.37;99815.12;4483494;31;33612;-71
2023/09/17 03:40:25;;;;;;;4.03;2.42;;;;;;;19.45;57.91;99819.00;4482599;32;35218;-72
2023/09/17 03:42:53;;;;;;;8.45;5.30;;;;;;;19.34;58.00;99823.94;4484097;32;33522;-72
2023/09/17 03:45:21;;;;;;;6.72;3.10;;;;;;;19.27;58.11;99819.16;4484403;32;33463;-72
2023/09/17 03:47:49;;;;;;;6.35;3.33;;;;;;;19.20;58.32;99830.88;4482292;31;33946;-72
2023/09/17 03:50:16;;;;;;;3.87;2.22;;;;;;;19.30;58.31;99826.13;4477886;31;33880;-72
2023/09/17 03:52:50;;;;;;;4.22;3.05;;;;;;;19.30;58.32;99820.72;4479748;31;35009;-72
2023/09/17 03:55:18;;;;;;;4.72;2.47;;;;;;;19.07;58.97;99825.94;4469837;32;34173;-72
2023/09/17 03:57:46;;;;;;;5.28;2.50;;;;;;;19.17;58.85;99825.78;4480142;31;33829;-71
2023/09/17 04:00:15;;;;;;;6.82;2.75;;;;;;;19.26;58.53;99828.34;4483881;31;34116;-71
2023/09/17 04:02:44;;;;;;;4.82;2.97;;;;;;;19.14;58.96;99828.84;4498808;31;34837;-71
2023/09/17 04:05:13;;;;;;;7.10;3.40;;;;;;;19.21;58.82;99835.28;4474287;31;34325;-71
2023/09/17 04:07:45;;;;;;;4.30;2.47;;;;;;;19.21;59.07;99832.56;4486178;31;33340;-70
2023/09/17 04:10:14;;;;;;;3.60;2.45;;;;;;;19.16;59.71;99838.47;4491936;31;33695;-70
2023/09/17 04:12:43;;;;;;;4.15;2.60;;;;;;;19.29;59.52;99832.56;4483668;32;34938;-70
2023/09/17 04:15:13;;;;;;;5.53;2.67;;;;;;;19.26;60.26;99839.19;4482086;32;33241;-70
2023/09/17 04:17:41;;;;;;;4.72;2.42;;;;;;;19.34;60.51;99838.34;4475859;31;33566;-71
2023/09/17 04:20:18;;;;;;;5.75;1.90;;;;;;;19.43;60.18;99842.75;4489185;31;35170;-70
2023/09/17 04:22:50;;;;;;;5.03;2.85;;;;;;;19.52;59.81;99846.31;4496068;31;33626;-70
2023/09/17 04:25:20;;;;;;;6.72;2.90;;;;;;;19.52;58.84;99849.03;4499221;31;33146;-70
2023/09/17 04:27:51;;;;;;;5.87;3.67;;;;;;;19.55;58.77;99851.41;4475057;31;33786;-70
2023/09/17 04:30:19;;;;;;;6.07;2.55;;;;;;;19.57;58.46;99841.22;4489433;31;33714;-71
2023/09/17 04:32:49;;;;;;;5.18;3.03;;;;;;;19.59;58.15;99850.06;4486845;31;33543;-70
2023/09/17 04:35:17;;;;;;;5.93;2.67;;;;;;;19.66;57.83;99848.37;4479463;32;32978;-71
2023/09/17 04:37:47;;;;;;;4.75;2.83;;;;;;;19.68;57.75;99851.78;4484164;32;34690;-70
2023/09/17 04:40:17;;;;;;;5.20;3.17;;;;;;;19.71;57.63;99853.28;4490041;31;35038;-71
2023/09/17 04:42:47;;;;;;;6.18;3.62;;;;;;;19.70;57.66;99857.88;4490454;31;33344;-70
2023/09/17 04:45:36;;;;;;;8.00;4.30;;;;;;;19.68;57.78;99862.66;4476581;32;33677;-71
2023/09/17 04:48:05;;;;;;;5.55;3.00;;;;;;;19.66;57.33;99869.25;4476844;32;34812;-70
2023/09/17 04:50:34;;;;;;;4.85;3.17;;;;;;;19.62;57.14;99857.84;4484341;32;33817;-71
2023/09/17 04:53:02;;;;;;;11.95;3.72;;;;;;;19.61;57.05;99861.56;4480984;32;33839;-71
2023/09/17 04:55:30;;;;;;;5.72;3.55;;;;;;;19.51;57.00;99869.03;4480352;32;33648;-72
2023/09/17 04:57:58;;;;;;;10.00;4.10;;;;;;;19.60;56.63;99873.47;4490056;31;34450;-71
2023/09/17 05:00:25;;;;;;;6.65;3.35;;;;;;;19.61;56.66;99868.88;4482276;31;33845;-69
2023/09/17 05:02:54;;;;;;;6.93;3.83;;;;;;;19.68;56.69;99870.78;4492847;31;36562;-75
2023/09/17 05:05:21;;;;;;;5.37;2.70;;;;;;;19.69;56.97;99875.19;4483478;32;33376;-71
2023/09/17 05:07:53;;;;;;;3.83;2.62;;;;;;;19.73;57.19;99876.53;4483471;31;33908;-71
2023/09/17 05:10:21;;;;;;;5.75;3.55;;;;;;;19.91;57.27;99872.81;4479263;31;34715;-70
2023/09/17 05:12:49;;;;;;;5.45;2.92;;;;;;;20.19;56.55;99874.13;4480210;31;33535;-71
2023/09/17 05:15:17;;;;;;;7.00;4.22;;;;;;;20.22;56.46;99871.06;4474923;31;33001;-70
2023/09/17 05:17:45;;;;;;;6.37;3.45;;;;;;;20.27;56.65;99872.37;4498094;31;34685;-70
2023/09/17 05:20:13;;;;;;;5.87;3.37;;;;;;;20.30;56.38;99882.91;4498453;31;35203;-70
2023/09/17 05:22:41;;;;;;;5.82;3.60;;;;;;;20.39;56.30;99887.31;4487786;31;34319;-70
2023/09/17 05:25:09;;;;;;;5.53;2.70;;;;;;;20.62;55.92;99884.72;4480468;31;32792;-70
2023/09/17 05:27:37;;;;;;;7.40;2.97;;;;;;;20.75;55.48;99886.87;4476281;32;33711;-70
2023/09/17 05:30:05;;;;;;;3.25;2.25;;;;;;;21.39;54.09;99890.25;4478292;32;33914;-70
2023/09/17 05:32:33;;;;;;;5.35;2.28;;;;;;;21.77;52.94;99887.59;4472469;31;33704;-70
2023/09/17 05:35:03;;;;;;;5.45;3.00;;;;;;;21.66;53.38;99890.72;4479201;31;34606;-70
2023/09/17 05:37:31;;;;;;;9.98;5.10;;;;;;;21.52;53.93;99890.50;4482209;32;34973;-70
2023/09/17 05:39:59;;;;;;;5.78;3.53;;;;;;;21.43;54.19;99891.59;4481777;31;34852;-71
2023/09/17 05:42:27;;;;;;;6.05;3.28;;;;;;;21.39;54.63;99896.53;4491509;31;35180;-70
2023/09/17 05:44:54;;;;;;;7.85;4.45;;;;;;;21.37;54.90;99897.75;4483981;31;33480;-71
2023/09/17 05:47:23;;;;;;;8.95;4.10;;;;;;;21.39;55.25;99899.25;4488638;31;33704;-71
2023/09/17 05:49:51;;;;;;;8.02;5.68;;;;;;;21.41;55.63;99899.06;4476789;31;34049;-70
2023/09/17 05:52:19;;;;;;;4.60;2.85;;;;;;;21.40;55.97;99902.84;4485049;31;33480;-71
2023/09/17 05:54:47;;;;;;;8.60;4.03;;;;;;;21.56;56.10;99897.25;4476026;32;32763;-70
2023/09/17 05:57:16;;;;;;;5.72;3.42;;;;;;;21.58;56.46;99895.22;4482874;32;34219;-70
2023/09/17 05:59:45;;;;;;;7.50;4.12;;;;;;;21.71;56.51;99904.66;4482045;32;34580;-70
2023/09/17 06:02:12;;;;;;;6.25;4.07;;;;;;;21.79;56.51;99901.84;4476711;31;33736;-70
2023/09/17 06:04:41;;;;;;;7.25;4.50;;;;;;;21.55;57.47;99901.03;4465303;32;34009;-71
2023/09/17 06:07:09;;;;;;;6.62;4.03;;;;;;;21.65;57.47;99902.66;4481898;31;33660;-70
2023/09/17 06:09:36;;;;;;;9.45;4.35;;;;;;;21.90;56.96;99900.59;4483014;31;33633;-70
2023/09/17 06:12:04;;;;;;;9.50;4.65;;;;;;;21.94;57.04;99902.75;4479537;32;34447;-70
2023/09/17 06:14:33;;;;;;;8.10;4.70;;;;;;;22.06;57.14;99898.53;4479034;31;32984;-70
2023/09/17 06:17:00;;;;;;;7.07;3.67;;;;;;;22.14;57.26;99905.78;4479895;31;34928;-70
2023/09/17 06:19:29;;;;;;;6.22;3.75;;;;;;;22.38;56.90;99909.34;4473906;31;33944;-71
2023/09/17 06:21:56;;;;;;;5.50;3.42;;;;;;;22.51;56.86;99910.37;4480444;31;33540;-70
2023/09/17 06:24:24;;;;;;;7.75;4.47;;;;;;;22.63;56.66;99910.75;4476160;31;33101;-71
2023/09/17 06:26:52;;;;;;;10.23;6.20;;;;;;;22.99;55.56;99912.72;4472661;31;34703;-70
2023/09/17 06:29:19;;;;;;;7.00;4.55;;;;;;;23.46;54.17;99912.19;4482145;31;33926;-71
2023/09/17 06:31:47;;;;;;;8.85;4.10;;;;;;;23.82;53.00;99907.72;4474448;31;34981;-71
2023/09/17 06:34:15;;;;;;;6.37;3.47;;;;;;;23.83;53.04;99914.91;4458431;32;34806;-71
2023/09/17 06:36:43;;;;;;;7.22;4.57;;;;;;;24.09;52.72;99914.25;4477696;31;34607;-71
2023/09/17 06:39:12;;;;;;;7.78;5.62;;;;;;;23.98;52.83;99915.66;4468262;32;33663;-71
2023/09/17 06:41:40;;;;;;;9.27;4.15;;;;;;;23.48;54.36;99917.47;4479695;31;36663;-71
2023/09/17 06:44:09;;;;;;;6.47;4.12;;;;;;;23.43;54.04;99919.91;4477912;31;33014;-71
2023/09/17 06:46:37;;;;;;;9.07;4.50;;;;;;;23.12;55.58;99921.06;4477925;31;33484;-71
2023/09/17 06:49:05;;;;;;;8.52;3.83;;;;;;;22.89;56.01;99921.16;4477400;31;33832;-70
2023/09/17 06:51:33;;;;;;;5.40;3.33;;;;;;;23.07;55.80;99923.50;4478229;31;34091;-71
2023/09/17 06:54:00;;;;;;;7.50;4.10;;;;;;;22.95;56.29;99930.47;4472389;31;34536;-71
2023/09/17 06:56:29;;;;;;;6.82;4.10;;;;;;;22.93;55.75;99933.41;4469131;31;33553;-71
2023/09/17 06:58:56;;;;;;;9.43;4.82;;;;;;;22.64;57.37;99926.06;4468399;32;35067;-71
2023/09/17 07:01:24;;;;;;;8.77;4.32;;;;;;;22.79;57.22;99924.19;4479248;31;34402;-70
2023/09/17 07:03:52;;;;;;;10.52;4.62;;;;;;;22.59;57.87;99924.94;4476878;31;33549;-71
2023/09/17 07:06:21;;;;;;;7.75;4.57;;;;;;;22.59;58.36;99930.41;4480173;31;33423;-71
2023/09/17 07:08:49;;;;;;;9.75;6.03;;;;;;;22.82;58.00;99933.00;4478164;31;33943;-71
2023/09/17 07:11:16;;;;;;;7.90;4.90;;;;;;;22.89;57.48;99932.09;4469602;31;34605;-70
2023/09/17 07:13:44;;;;;;;8.88;5.72;;;;;;;22.66;58.09;99928.59;4478511;31;33222;-73
2023/09/17 07:16:13;;;;;;;7.57;4.55;;;;;;;23.11;57.21;99929.41;4472039;32;34465;-71
2023/09/17 07:18:41;;;;;;;10.10;6.50;;;;;;;23.12;57.06;99931.97;4475693;31;34133;-72
2023/09/17 07:21:09;;;;;;;9.98;6.03;;;;;;;23.01;57.03;99935.19;4483098;31;33676;-72
2023/09/17 07:23:36;;;;;;;12.27;9.27;;;;;;;23.06;57.02;99929.16;4483520;31;33220;-72
2023/09/17 07:26:06;;;;;;;10.90;8.45;;;;;;;22.69;58.28;99933.69;4470903;31;33648;-71
2023/09/17 07:28:34;;;;;;;10.00;6.28;;;;;;;22.85;58.00;99929.91;4475926;31;33869;-72
2023/09/17 07:31:02;;;;;;;8.55;6.20;;;;;;;22.94;57.78;99937.00;4477789;31;33759;-71
2023/09/17 07:33:30;;;;;;;10.68;5.25;;;;;;;23.29;57.03;99932.59;4484204;31;33311;-72
2023/09/17 07:35:58;;;;;;;10.30;7.03;;;;;;;23.12;57.57;99936.59;4476715;32;33644;-72
2023/09/17 07:38:25;;;;;;;8.43;6.25;;;;;;;23.30;57.16;99944.34;4483896;31;33968;-71
2023/09/17 07:40:54;;;;;;;11.95;6.90;;;;;;;23.41;56.76;99935.66;4482714;31;33550;-71
2023/09/17 07:43:22;;;;;;;10.05;6.72;;;;;;;23.07;57.46;99939.03;4474272;32;34217;-71
2023/09/17 07:45:50;;;;;;;12.07;5.18;;;;;;;23.83;55.48;99932.13;4478212;31;33705;-71
2023/09/17 07:48:18;;;;;;;11.98;7.22;;;;;;;24.23;54.94;99935.19;4480372;31;34255;-71
2023/09/17 07:50:59;;;;;;;9.73;6.22;;;;;;;23.86;54.97;99936.38;4479811;31;33497;-71
2023/09/17 07:53:27;;;;;;;8.77;6.18;;;;;;;24.30;54.20;99946.19;4479120;32;34164;-71
2023/09/17 07:55:56;;;;;;;9.90;6.65;;;;;;;24.40;53.40;99944.81;4474559;31;33571;-73
2023/09/17 07:58:24;;;;;;;14.85;7.78;;;;;;;24.40;53.95;99939.31;4476056;32;34994;-71
2023/09/17 08:00:53;;;;;;;9.52;7.00;;;;;;;24.43;53.96;99942.72;4468262;31;33732;-72
2023/09/17 08:03:21;;;;;;;13.52;8.23;;;;;;;24.22;54.84;99947.19;4475919;32;34012;-71
2023/09/17 08:05:49;;;;;;;12.93;8.10;;;;;;;24.23;55.00;99945.28;4468899;32;35314;-74
2023/09/17 08:08:17;;;;;;;11.88;8.32;;;;;;;24.81;53.61;99940.44;4463268;32;33456;-73
2023/09/17 08:10:44;;;;;;;10.90;7.32;;;;;;;24.63;53.56;99943.72;4458562;32;33456;-72
2023/09/17 08:13:12;;;;;;;11.82;7.12;;;;;;;24.70;53.60;99946.50;4445215;32;34155;-72
2023/09/17 08:15:40;;;;;;;10.95;6.07;;;;;;;24.90;52.99;99952.06;4464248;32;33773;-73
2023/09/17 08:18:08;;;;;;;10.52;7.53;;;;;;;24.51;53.54;99956.25;4471939;32;34028;-72
2023/09/17 08:20:36;;;;;;;8.48;5.53;;;;;;;24.98;53.17;99949.16;4463315;32;34542;-73
2023/09/17 08:23:05;;;;;;;14.15;8.40;;;;;;;25.01;53.52;99948.75;4460459;32;35608;-73
2023/09/17 08:25:59;;;;;;;14.77;7.32;;;;;;;25.08;52.66;99946.91;4464125;32;33102;-73
2023/09/17 08:28:48;;;;;;;11.95;8.93;;;;;;;24.72;53.83;99945.25;4463279;32;34225;-72
2023/09/17 08:31:36;;;;;;;17.62;9.80;;;;;;;24.83;53.93;99947.41;4462688;32;34025;-72
2023/09/17 08:34:24;;;;;;;11.48;7.70;;;;;;;25.00;52.98;99939.69;4466888;32;32427;-71
2023/09/17 08:36:53;;;;;;;14.60;9.35;;;;;;;24.54;54.84;99945.75;4464301;32;32781;-72
2023/09/17 08:39:21;;;;;;;11.38;8.32;;;;;;;24.53;54.49;99945.97;4478671;31;34304;-72
2023/09/17 08:41:49;;;;;;;16.95;9.40;;;;;;;24.95;53.74;99941.38;4479953;32;33603;-73
2023/09/17 08:44:17;;;;;;;15.27;9.30;;;;;;;24.97;53.51;99941.97;4471473;32;33078;-72
2023/09/17 08:46:45;;;;;;;11.77;9.02;;;;;;;24.57;53.84;99937.16;4454539;32;35380;-72
2023/09/17 08:49:12;;;;;;;12.80;8.57;;;;;;;24.74;54.07;99934.09;4466138;32;34949;-73
2023/09/17 08:51:41;;;;;;;10.63;7.00;;;;;;;24.80;53.67;99936.84;4465503;32;34064;-71
2023/09/17 08:54:24;;;;;;;10.32;6.62;;;;;;;24.67;54.00;99939.53;4459093;32;34291;-72
2023/09/17 08:56:55;;;;;;;9.60;6.40;;;;;;;24.74;53.90;99934.09;4462956;32;33918;-70
2023/09/17 08:59:27;;;;;;;8.88;6.18;;;;;;;25.22;52.54;99928.62;4462989;32;35044;-70
2023/09/17 09:01:57;;;;;;;10.57;6.68;;;;;;;25.18;52.79;99936.44;4454257;32;33809;-72
2023/09/17 09:04:25;;;;;;;12.32;6.32;;;;;;;25.27;52.37;99935.19;4451948;32;34421;-71
2023/09/17 09:06:54;;;;;;;13.60;7.60;;;;;;;25.60;51.50;99941.81;4451639;32;33811;-73
2023/09/17 09:09:23;;;;;;;9.75;6.80;;;;;;;25.58;51.74;99933.78;4466772;32;33571;-74
2023/09/17 09:11:51;;;;;;;11.40;8.30;;;;;;;25.84;50.80;99937.66;4465593;32;33878;-72
2023/09/17 09:14:19;;;;;;;12.15;6.97;;;;;;;25.86;50.85;99938.31;4468820;32;33475;-75
2023/09/17 09:16:47;;;;;;;11.80;8.15;;;;;;;25.21;51.90;99940.66;4464880;32;33354;-73
2023/09/17 09:19:15;;;;;;;13.00;8.52;;;;;;;25.64;51.48;99935.69;4475422;32;34418;-71
2023/09/17 09:21:43;;;;;;;15.95;8.68;;;;;;;25.32;51.80;99935.41;4467694;32;33246;-72
2023/09/17 09:24:11;;;;;;;13.60;7.68;;;;;;;25.20;52.71;99928.88;4477829;32;33192;-75
2023/09/17 09:26:38;;;;;;;14.65;7.20;;;;;;;25.66;51.05;99919.06;4465470;32;33099;-74
2023/09/17 09:29:06;;;;;;;12.05;8.45;;;;;;;25.59;51.56;99926.44;4468231;32;33379;-73
2023/09/17 09:31:34;;;;;;;11.10;7.50;;;;;;;25.54;51.36;99927.88;4472382;32;33710;-73
2023/09/17 09:34:02;;;;;;;12.90;7.68;;;;;;;25.49;51.75;99926.81;4474716;32;36220;-72
2023/09/17 09:36:33;;;;;;;12.35;9.52;;;;;;;25.84;51.69;99923.94;4464683;32;34615;-72
2023/09/17 09:39:01;;;;;;;12.90;8.07;;;;;;;25.77;52.31;99927.50;4434053;32;32925;-72
2023/09/17 09:41:32;;;;;;;11.48;7.50;;;;;;;26.25;50.12;99924.56;4434487;32;34642;-74
2023/09/17 09:44:01;;;;;;;13.35;7.12;;;;;;;26.12;50.34;99927.31;4421747;32;33401;-73
2023/09/17 09:46:32;;;;;;;17.23;11.57;;;;;;;26.02;50.22;99924.16;4429563;32;34199;-73
2023/09/17 09:49:01;;;;;;;12.88;10.40;;;;;;;26.00;51.47;99934.50;4432288;32;33587;-74
2023/09/17 09:51:30;;;;;;;13.00;9.00;;;;;;;25.96;50.51;99928.59;4439582;32;34712;-74
2023/09/17 09:53:58;;;;;;;12.13;9.45;;;;;;;26.31;50.11;99933.88;4434996;32;33855;-72
2023/09/17 09:56:29;;;;;;;12.50;10.73;;;;;;;26.39;49.71;99928.16;4437167;32;33362;-72
2023/09/17 09:58:57;;;;;;;14.13;10.80;;;;;;;26.22;50.83;99924.16;4411428;32;34112;-73
2023/09/17 10:01:25;;;;;;;19.70;11.93;;;;;;;26.55;48.82;99928.78;4422412;32;35261;-73
2023/09/17 10:03:57;;;;;;;17.23;11.55;;;;;;;26.71;49.21;99920.94;4434680;32;32968;-72
2023/09/17 10:06:25;;;;;;;12.45;10.18;;;;;;;26.58;49.78;99928.34;4433217;32;34629;-73
2023/09/17 10:08:53;;;;;;;11.45;9.02;;;;;;;26.73;49.04;99919.88;4418721;32;33878;-72
2023/09/17 10:11:22;;;;;;;11.95;8.25;;;;;;;27.07;46.99;99921.44;4413033;32;33266;-75
2023/09/17 10:13:53;;;;;;;12.25;9.32;;;;;;;27.58;45.96;99917.81;4401670;32;33078;-75
2023/09/17 10:16:22;;;;;;;13.48;10.23;;;;;;;27.35;46.96;99913.72;4400796;32;34340;-71
2023/09/17 10:18:50;;;;;;;14.55;10.30;;;;;;;27.36;46.91;99909.91;4401132;32;33865;-75
2023/09/17 10:21:18;;;;;;;14.57;12.32;;;;;;;27.23;47.57;99900.91;4401340;32;34885;-73
2023/09/17 10:23:47;;;;;;;12.95;10.40;;;;;;;27.47;46.67;99913.84;4392691;32;33071;-75
2023/09/17 10:26:18;;;;;;;14.95;9.82;;;;;;;27.41;46.58;99907.31;4376341;32;33675;-73
2023/09/17 10:28:46;;;;;;;15.95;10.48;;;;;;;27.83;45.78;99893.97;4378236;32;32677;-72
2023/09/17 10:31:15;;;;;;;15.77;11.20;;;;;;;27.72;46.85;99893.81;4376994;32;33496;-73
2023/09/17 10:33:44;;;;;;;15.85;10.45;;;;;;;27.34;46.84;99895.53;4391775;32;33141;-75
2023/09/17 10:36:12;;;;;;;12.57;10.00;;;;;;;27.66;45.52;99902.97;4400444;32;33702;-74
2023/09/17 10:38:42;;;;;;;12.93;9.75;;;;;;;27.91;44.80;99901.09;4388580;32;33618;-74
2023/09/17 10:41:10;;;;;;;14.50;9.40;;;;;;;28.29;43.86;99903.72;4421745;32;33851;-74
2023/09/17 10:43:41;;;;;;;14.25;10.65;;;;;;;27.75;45.13;99898.88;4418217;32;34167;-71
2023/09/17 10:46:12;;;;;;;12.90;9.65;;;;;;;27.89;44.67;99886.72;4418977;32;34516;-72
2023/09/17 10:48:41;;;;;;;11.77;8.85;;;;;;;27.93;45.20;99885.22;4408239;32;33673;-72
2023/09/17 10:51:09;;;;;;;11.00;9.57;;;;;;;27.75;45.41;99888.72;4424184;32;35258;-72
2023/09/17 10:53:37;;;;;;;12.13;9.32;;;;;;;28.24;44.98;99894.47;4423350;32;34468;-72
2023/09/17 10:56:09;;;;;;;11.85;9.43;;;;;;;27.80;45.48;99888.06;4457979;32;33608;-74
2023/09/17 10:58:42;;;;;;;10.90;8.32;;;;;;;27.89;45.24;99885.88;4468618;32;34945;-73
2023/09/17 11:01:21;;;;;;;14.45;9.77;;;;;;;28.10;44.82;99886.31;4465402;31;34996;-72
2023/09/17 11:03:55;;;;;;;14.30;10.93;;;;;;;28.04;45.12;99880.88;4468581;31;32636;-73
2023/09/17 11:06:26;;;;;;;;;;;;;;;27.74;45.54;99875.19;4461753;31;35000;-71
2023/09/17 11:08:56;;;;;;;13.00;10.70;;;;;;;27.74;44.80;99872.44;4463483;32;32870;-70
2023/09/17 11:11:24;;;;;;;13.43;9.98;;;;;;;27.80;44.63;99864.19;4468914;32;34897;-71
2023/09/17 11:13:53;;;;;;;14.48;9.95;;;;;;;28.22;44.13;99874.56;4470753;31;33185;-72
2023/09/17 11:16:26;;;;;;;12.00;9.02;;;;;;;27.85;45.07;99869.00;4477435;31;34543;-71
2023/09/17 11:19:08;;;;;;;13.50;10.35;;;;;;;28.11;45.06;99870.66;4487797;31;33897;-71
2023/09/17 11:21:38;;;;;;;12.37;10.93;;;;;;;28.42;43.53;99874.41;4481030;31;34585;-72
2023/09/17 11:24:08;;;;;;;11.90;9.55;;;;;;;28.39;44.37;99875.69;4489356;31;32270;-73
2023/09/17 11:26:42;;;;;;;16.17;9.50;;;;;;;28.21;43.81;99875.66;4477758;31;32689;-72
2023/09/17 11:29:10;;;;;;;11.93;10.07;;;;;;;27.76;44.71;99876.63;4466941;31;32751;-71
2023/09/17 11:31:53;;;;;;;18.12;11.48;;;;;;;27.72;44.65;99872.66;4481846;31;35593;-70
2023/09/17 11:34:21;;;;;;;14.48;10.77;;;;;;;27.67;45.25;99874.38;4479143;31;33318;-71
2023/09/17 11:36:50;;;;;;;12.98;9.65;;;;;;;28.13;44.59;99873.19;4479242;31;34735;-71
2023/09/17 11:39:21;;;;;;;12.40;8.80;;;;;;;28.14;44.37;99874.88;4480792;31;34094;-71